Rockville, Nebraska
Current Conditions -  °F | °C
As of 9:55 AM on Friday 24 Oct 2014 (Local Time) from KEAR Reporting Station
Clear Clear  
Wind Chill: 55°   Ceiling: Unl
Heat Index: 55°   Visibility: 10mi
Dew Point: 48°   Wind: 13mph
Humidity: 77%   Direction: 230°SW
Pressure: 29.98"   Gusts: NA
Location:  41.12°N, 98.83°W
Report Text: KEAR 241455Z 23011KT 10SM CLR 13/09 A2998 RMK AO1 52007
Loading
Personal Weather Stations






























Interactive Weather Map
Tropical Storm Tracking
New forecast layout! Learn more

10-Day Weather Forecast

Advertisements
Track Severe Weather on mobile